WXM80 ListenWXM80 Stop

You find our weather info also at:

UK Metoffice

WeatherCloud

Weather Underground

Northeastern Weather Network

AWEKAS

Citizen Weather Observer Program (CWOP)

HAMweather, WeatherForYou, PWS Weather


Weather Underground History page Text

Daily Summary for February 14, 2017 Units:  Both    English   Metric
« Previous Day
Next Day »
Daily Weekly Monthly Yearly Custom
  High: Low: Average:
Temperature: 39.6 °F /  4.2 °C 27.8 °F /  -2.3 °C 33 °F /  0.6 °C
Dew Point: 32.8 °F /  0.4 °C 20.7 °F /  -6.3 °C 24.7 °F /  -4.1 °C
Humidity: 90 % 55 % 72 %
Wind Speed: 7.7 mph /  12.4 km/h - 2.8 mph /  4.5 km/h
Wind Gust: 10.4 mph /  16.7 km/h - -
Wind:- - WSW
Pressure: 29.96 in /  1014.4 hPa 29.70 in /  1005.6 hPa -
Precipitation: 0.00 in /  0 mm    
Historical Graphs
 
 
Tabular Data for February 14, 2017
Time Temperature Dew Point Pressure Wind Wind Speed Wind Gust Humidity Rainfall Rate (Hourly)
00:03 29.6 °F /  -1.3 °C 21.7 °F /  -5.7 °C 29.93 in /  1013.4 hPa NNW 3.9 mph /  6.3 km/h 8.0 mph /  12.9 km/h 72 % 0.00 in /  0 mm
00:08 29.5 °F /  -1.4 °C 21.3 °F /  -5.9 °C 29.94 in /  1013.8 hPa NNW 4.1 mph /  6.6 km/h 9.2 mph /  14.8 km/h 71 % 0.00 in /  0 mm
00:13 29.5 °F /  -1.4 °C 21.6 °F /  -5.8 °C 29.94 in /  1013.8 hPa NNW 1.7 mph /  2.7 km/h 5.0 mph /  8 km/h 72 % 0.00 in /  0 mm
00:18 29.4 °F /  -1.4 °C 21.5 °F /  -5.8 °C 29.94 in /  1013.8 hPa NNW 3.7 mph /  6 km/h 6.9 mph /  11.1 km/h 72 % 0.00 in /  0 mm
00:23 29.4 °F /  -1.4 °C 21.2 °F /  -6 °C 29.94 in /  1013.8 hPa North 3.5 mph /  5.6 km/h 4.0 mph /  6.4 km/h 71 % 0.00 in /  0 mm
00:28 29.4 °F /  -1.4 °C 21.5 °F /  -5.8 °C 29.94 in /  1013.8 hPa NNW 2.6 mph /  4.2 km/h 9.2 mph /  14.8 km/h 72 % 0.00 in /  0 mm
00:33 29.3 °F /  -1.5 °C 21.4 °F /  -5.9 °C 29.94 in /  1013.8 hPa NNW 3.0 mph /  4.8 km/h 9.0 mph /  14.5 km/h 72 % 0.00 in /  0 mm
00:38 29.3 °F /  -1.5 °C 21.4 °F /  -5.9 °C 29.94 in /  1013.8 hPa NNW 2.0 mph /  3.2 km/h 7.0 mph /  11.3 km/h 72 % 0.00 in /  0 mm
00:43 29.3 °F /  -1.5 °C 21.4 °F /  -5.9 °C 29.94 in /  1013.8 hPa NNW 3.0 mph /  4.8 km/h 7.0 mph /  11.3 km/h 72 % 0.00 in /  0 mm
00:48 29.2 °F /  -1.6 °C 21.3 °F /  -5.9 °C 29.93 in /  1013.4 hPa NNW 2.0 mph /  3.2 km/h 8.0 mph /  12.9 km/h 72 % 0.00 in /  0 mm
00:53 29.2 °F /  -1.6 °C 21.3 °F /  -5.9 °C 29.93 in /  1013.4 hPa North 3.0 mph /  4.8 km/h 6.0 mph /  9.7 km/h 72 % 0.00 in /  0 mm
00:58 29.1 °F /  -1.6 °C 21.2 °F /  -6 °C 29.93 in /  1013.4 hPa North 1.8 mph /  2.9 km/h 3.5 mph /  5.6 km/h 72 % 0.00 in /  0 mm
01:03 29.1 °F /  -1.6 °C 21.5 °F /  -5.8 °C 29.93 in /  1013.4 hPa North 3.2 mph /  5.1 km/h 6.0 mph /  9.7 km/h 73 % 0.00 in /  0 mm
01:08 29.0 °F /  -1.7 °C 21.4 °F /  -5.9 °C 29.93 in /  1013.4 hPa North 2.0 mph /  3.2 km/h 7.0 mph /  11.3 km/h 73 % 0.00 in /  0 mm
01:13 28.9 °F /  -1.7 °C 21.3 °F /  -5.9 °C 29.92 in /  1013.1 hPa North 5.3 mph /  8.5 km/h 6.9 mph /  11.1 km/h 73 % 0.00 in /  0 mm
01:18 28.9 °F /  -1.7 °C 21.3 °F /  -5.9 °C 29.92 in /  1013.1 hPa North 3.0 mph /  4.8 km/h 9.0 mph /  14.5 km/h 73 % 0.00 in /  0 mm
01:23 28.9 °F /  -1.7 °C 21.3 °F /  -5.9 °C 29.93 in /  1013.4 hPa North 6.0 mph /  9.7 km/h 10.0 mph /  16.1 km/h 73 % 0.00 in /  0 mm
01:28 28.9 °F /  -1.7 °C 21.3 °F /  -5.9 °C 29.93 in /  1013.4 hPa North 2.0 mph /  3.2 km/h 7.0 mph /  11.3 km/h 73 % 0.00 in /  0 mm
01:33 28.9 °F /  -1.7 °C 21.3 °F /  -5.9 °C 29.93 in /  1013.4 hPa North 3.0 mph /  4.8 km/h 8.0 mph /  12.9 km/h 73 % 0.00 in /  0 mm
01:38 28.9 °F /  -1.7 °C 21.3 °F /  -5.9 °C 29.93 in /  1013.4 hPa North 2.0 mph /  3.2 km/h 8.0 mph /  12.9 km/h 73 % 0.00 in /  0 mm
01:43 28.9 °F /  -1.7 °C 21.3 °F /  -5.9 °C 29.93 in /  1013.4 hPa NE 4.0 mph /  6.4 km/h 6.0 mph /  9.7 km/h 73 % 0.00 in /  0 mm
01:48 28.9 °F /  -1.7 °C 21.4 °F /  -5.9 °C 29.93 in /  1013.4 hPa North 3.0 mph /  4.8 km/h 6.0 mph /  9.7 km/h 73 % 0.00 in /  0 mm
01:53 29.0 °F /  -1.7 °C 21.4 °F /  -5.9 °C 29.93 in /  1013.4 hPa NNW 5.0 mph /  8 km/h 9.0 mph /  14.5 km/h 73 % 0.00 in /  0 mm
01:58 29.0 °F /  -1.7 °C 21.4 °F /  -5.9 °C 29.93 in /  1013.4 hPa North 3.8 mph /  6.1 km/h 6.0 mph /  9.7 km/h 73 % 0.00 in /  0 mm
02:03 29.0 °F /  -1.7 °C 21.4 °F /  -5.9 °C 29.93 in /  1013.4 hPa NNW 0.8 mph /  1.3 km/h 4.6 mph /  7.4 km/h 73 % 0.00 in /  0 mm
02:08 29.0 °F /  -1.7 °C 21.4 °F /  -5.9 °C 29.93 in /  1013.4 hPa NW 0.2 mph /  0.3 km/h 2.3 mph /  3.7 km/h 73 % 0.00 in /  0 mm
02:14 28.9 °F /  -1.7 °C 21.3 °F /  -5.9 °C 29.93 in /  1013.4 hPa NNW 4.6 mph /  7.4 km/h 5.8 mph /  9.3 km/h 73 % 0.00 in /  0 mm
02:19 28.9 °F /  -1.7 °C 21.3 °F /  -5.9 °C 29.93 in /  1013.4 hPa North 2.9 mph /  4.7 km/h 5.8 mph /  9.3 km/h 73 % 0.00 in /  0 mm
02:24 28.9 °F /  -1.7 °C 21.3 °F /  -5.9 °C 29.94 in /  1013.8 hPa North 2.9 mph /  4.7 km/h 5.8 mph /  9.3 km/h 73 % 0.00 in /  0 mm
02:29 29.0 °F /  -1.7 °C 21.7 °F /  -5.7 °C 29.94 in /  1013.8 hPa North 3.5 mph /  5.6 km/h 5.8 mph /  9.3 km/h 74 % 0.00 in /  0 mm
02:34 29.0 °F /  -1.7 °C 21.4 °F /  -5.9 °C 29.94 in /  1013.8 hPa NNW 4.1 mph /  6.6 km/h 6.9 mph /  11.1 km/h 73 % 0.00 in /  0 mm
02:39 29.0 °F /  -1.7 °C 21.4 °F /  -5.9 °C 29.94 in /  1013.8 hPa North 3.1 mph /  5 km/h 8.0 mph /  12.9 km/h 73 % 0.00 in /  0 mm
02:44 28.9 °F /  -1.7 °C 21.3 °F /  -5.9 °C 29.93 in /  1013.4 hPa NNW 2.3 mph /  3.7 km/h 6.0 mph /  9.7 km/h 73 % 0.00 in /  0 mm
02:49 28.9 °F /  -1.7 °C 21.3 °F /  -5.9 °C 29.94 in /  1013.8 hPa North 2.3 mph /  3.7 km/h 4.6 mph /  7.4 km/h 73 % 0.00 in /  0 mm
02:54 28.8 °F /  -1.8 °C 21.6 °F /  -5.8 °C 29.93 in /  1013.4 hPa NNE 3.9 mph /  6.3 km/h 3.9 mph /  6.3 km/h 74 % 0.00 in /  0 mm
02:59 28.8 °F /  -1.8 °C 21.6 °F /  -5.8 °C 29.93 in /  1013.4 hPa North 4.4 mph /  7.1 km/h 8.0 mph /  12.9 km/h 74 % 0.00 in /  0 mm
03:04 28.8 °F /  -1.8 °C 21.2 °F /  -6 °C 29.93 in /  1013.4 hPa NNE 2.5 mph /  4 km/h 6.9 mph /  11.1 km/h 73 % 0.00 in /  0 mm
03:09 28.7 °F /  -1.8 °C 21.5 °F /  -5.8 °C 29.93 in /  1013.4 hPa North 4.0 mph /  6.4 km/h 8.1 mph /  13 km/h 74 % 0.00 in /  0 mm
03:14 28.7 °F /  -1.8 °C 21.5 °F /  -5.8 °C 29.92 in /  1013.1 hPa NNE 6.2 mph /  10 km/h 9.0 mph /  14.5 km/h 74 % 0.00 in /  0 mm
03:19 28.6 °F /  -1.9 °C 21.0 °F /  -6.1 °C 29.93 in /  1013.4 hPa NNE 6.4 mph /  10.3 km/h 9.2 mph /  14.8 km/h 73 % 0.00 in /  0 mm
03:24 28.5 °F /  -1.9 °C 21.3 °F /  -5.9 °C 29.93 in /  1013.4 hPa North 2.8 mph /  4.5 km/h 8.1 mph /  13 km/h 74 % 0.00 in /  0 mm
03:29 28.5 °F /  -1.9 °C 21.3 °F /  -5.9 °C 29.93 in /  1013.4 hPa North 5.5 mph /  8.9 km/h 8.1 mph /  13 km/h 74 % 0.00 in /  0 mm
03:34 28.5 °F /  -1.9 °C 21.3 °F /  -5.9 °C 29.93 in /  1013.4 hPa NNE 4.3 mph /  6.9 km/h 6.9 mph /  11.1 km/h 74 % 0.00 in /  0 mm
03:39 28.4 °F /  -2 °C 21.2 °F /  -6 °C 29.93 in /  1013.4 hPa NNE 5.1 mph /  8.2 km/h 10.4 mph /  16.7 km/h 74 % 0.00 in /  0 mm
03:44 28.4 °F /  -2 °C 21.2 °F /  -6 °C 29.93 in /  1013.4 hPa NNE 7.7 mph /  12.4 km/h 10.4 mph /  16.7 km/h 74 % 0.00 in /  0 mm
03:50 28.5 °F /  -1.9 °C 20.9 °F /  -6.2 °C 29.93 in /  1013.4 hPa North 2.6 mph /  4.2 km/h 4.6 mph /  7.4 km/h 73 % 0.00 in /  0 mm
03:55 28.5 °F /  -1.9 °C 21.3 °F /  -5.9 °C 29.93 in /  1013.4 hPa NNW 2.0 mph /  3.2 km/h 4.6 mph /  7.4 km/h 74 % 0.00 in /  0 mm
04:00 28.5 °F /  -1.9 °C 21.3 °F /  -5.9 °C 29.93 in /  1013.4 hPa North 4.9 mph /  7.9 km/h 8.1 mph /  13 km/h 74 % 0.00 in /  0 mm
04:05 28.4 °F /  -2 °C 21.2 °F /  -6 °C 29.93 in /  1013.4 hPa NNW 3.4 mph /  5.5 km/h 6.9 mph /  11.1 km/h 74 % 0.00 in /  0 mm
04:10 28.3 °F /  -2.1 °C 21.1 °F /  -6.1 °C 29.92 in /  1013.1 hPa North 3.6 mph /  5.8 km/h 8.1 mph /  13 km/h 74 % 0.00 in /  0 mm
04:15 28.3 °F /  -2.1 °C 21.1 °F /  -6.1 °C 29.93 in /  1013.4 hPa NNE 3.7 mph /  6 km/h 4.6 mph /  7.4 km/h 74 % 0.00 in /  0 mm
04:20 28.3 °F /  -2.1 °C 21.1 °F /  -6.1 °C 29.93 in /  1013.4 hPa NNW 3.6 mph /  5.8 km/h 4.6 mph /  7.4 km/h 74 % 0.00 in /  0 mm
04:25 28.3 °F /  -2.1 °C 21.1 °F /  -6.1 °C 29.93 in /  1013.4 hPa North 1.4 mph /  2.3 km/h 4.0 mph /  6.4 km/h 74 % 0.00 in /  0 mm
04:30 28.2 °F /  -2.1 °C 21.0 °F /  -6.1 °C 29.93 in /  1013.4 hPa NNE 2.0 mph /  3.2 km/h 4.0 mph /  6.4 km/h 74 % 0.00 in /  0 mm
04:35 28.2 °F /  -2.1 °C 21.3 °F /  -5.9 °C 29.92 in /  1013.1 hPa NNE 3.2 mph /  5.1 km/h 5.8 mph /  9.3 km/h 75 % 0.00 in /  0 mm
04:40 28.1 °F /  -2.2 °C 21.2 °F /  -6 °C 29.92 in /  1013.1 hPa North 5.0 mph /  8 km/h 9.2 mph /  14.8 km/h 75 % 0.00 in /  0 mm
04:45 28.1 °F /  -2.2 °C 20.9 °F /  -6.2 °C 29.93 in /  1013.4 hPa North 2.4 mph /  3.9 km/h 5.8 mph /  9.3 km/h 74 % 0.00 in /  0 mm
04:50 28.1 °F /  -2.2 °C 20.9 °F /  -6.2 °C 29.93 in /  1013.4 hPa NNE 3.2 mph /  5.1 km/h 4.6 mph /  7.4 km/h 74 % 0.00 in /  0 mm
04:55 28.1 °F /  -2.2 °C 20.9 °F /  -6.2 °C 29.94 in /  1013.8 hPa North 3.5 mph /  5.6 km/h 6.9 mph /  11.1 km/h 74 % 0.00 in /  0 mm
05:01 28.0 °F /  -2.2 °C 20.8 °F /  -6.2 °C 29.94 in /  1013.8 hPa NW 2.3 mph /  3.7 km/h 3.5 mph /  5.6 km/h 74 % 0.00 in /  0 mm
05:06 28.0 °F /  -2.2 °C 21.1 °F /  -6.1 °C 29.93 in /  1013.4 hPa North 2.6 mph /  4.2 km/h 5.0 mph /  8 km/h 75 % 0.00 in /  0 mm
05:11 27.9 °F /  -2.3 °C 20.7 °F /  -6.3 °C 29.94 in /  1013.8 hPa NNW 0.6 mph /  1 km/h 2.3 mph /  3.7 km/h 74 % 0.00 in /  0 mm
05:16 27.9 °F /  -2.3 °C 21.0 °F /  -6.1 °C 29.94 in /  1013.8 hPa NNW 2.1 mph /  3.4 km/h 3.5 mph /  5.6 km/h 75 % 0.00 in /  0 mm
05:21 27.9 °F /  -2.3 °C 21.0 °F /  -6.1 °C 29.94 in /  1013.8 hPa NW 1.9 mph /  3.1 km/h 5.8 mph /  9.3 km/h 75 % 0.00 in /  0 mm
05:26 27.9 °F /  -2.3 °C 21.0 °F /  -6.1 °C 29.94 in /  1013.8 hPa WNW 2.9 mph /  4.7 km/h 4.0 mph /  6.4 km/h 75 % 0.00 in /  0 mm
05:31 27.8 °F /  -2.3 °C 20.9 °F /  -6.2 °C 29.94 in /  1013.8 hPa North 1.4 mph /  2.3 km/h 3.5 mph /  5.6 km/h 75 % 0.00 in /  0 mm
05:36 27.8 °F /  -2.3 °C 20.9 °F /  -6.2 °C 29.94 in /  1013.8 hPa NNW 3.1 mph /  5 km/h 3.5 mph /  5.6 km/h 75 % 0.00 in /  0 mm
05:41 27.8 °F /  -2.3 °C 20.9 °F /  -6.2 °C 29.93 in /  1013.4 hPa NNW 2.2 mph /  3.5 km/h 3.5 mph /  5.6 km/h 75 % 0.00 in /  0 mm
05:46 27.9 °F /  -2.3 °C 21.0 °F /  -6.1 °C 29.93 in /  1013.4 hPa Calm   4.6 mph /  7.4 km/h 75 % 0.00 in /  0 mm
05:51 27.9 °F /  -2.3 °C 21.0 °F /  -6.1 °C 29.94 in /  1013.8 hPa NNW 2.2 mph /  3.5 km/h 5.8 mph /  9.3 km/h 75 % 0.00 in /  0 mm
05:56 27.8 °F /  -2.3 °C 20.9 °F /  -6.2 °C 29.94 in /  1013.8 hPa NNE 4.0 mph /  6.4 km/h 6.9 mph /  11.1 km/h 75 % 0.00 in /  0 mm
06:01 27.8 °F /  -2.3 °C 20.9 °F /  -6.2 °C 29.94 in /  1013.8 hPa NNW 2.1 mph /  3.4 km/h 6.0 mph /  9.7 km/h 75 % 0.00 in /  0 mm
06:06 27.8 °F /  -2.3 °C 20.9 °F /  -6.2 °C 29.94 in /  1013.8 hPa NNW 2.8 mph /  4.5 km/h 3.5 mph /  5.6 km/h 75 % 0.00 in /  0 mm
06:12 27.8 °F /  -2.3 °C 20.9 °F /  -6.2 °C 29.94 in /  1013.8 hPa NNW 1.0 mph /  1.6 km/h 5.0 mph /  8 km/h 75 % 0.00 in /  0 mm
06:17 27.9 °F /  -2.3 °C 21.0 °F /  -6.1 °C 29.94 in /  1013.8 hPa NNW 3.4 mph /  5.5 km/h 4.6 mph /  7.4 km/h 75 % 0.00 in /  0 mm
06:22 27.8 °F /  -2.3 °C 20.9 °F /  -6.2 °C 29.94 in /  1013.8 hPa North 2.7 mph /  4.3 km/h 5.8 mph /  9.3 km/h 75 % 0.00 in /  0 mm
06:27 27.8 °F /  -2.3 °C 20.9 °F /  -6.2 °C 29.94 in /  1013.8 hPa NNW 3.7 mph /  6 km/h 4.6 mph /  7.4 km/h 75 % 0.00 in /  0 mm
06:32 27.9 °F /  -2.3 °C 21.0 °F /  -6.1 °C 29.94 in /  1013.8 hPa NW 3.3 mph /  5.3 km/h 6.0 mph /  9.7 km/h 75 % 0.00 in /  0 mm
06:37 28.0 °F /  -2.2 °C 21.4 °F /  -5.9 °C 29.94 in /  1013.8 hPa NNW 3.4 mph /  5.5 km/h 6.0 mph /  9.7 km/h 76 % 0.00 in /  0 mm
06:42 28.0 °F /  -2.2 °C 21.1 °F /  -6.1 °C 29.95 in /  1014.1 hPa NW 0.3 mph /  0.5 km/h 3.5 mph /  5.6 km/h 75 % 0.00 in /  0 mm
06:47 28.1 °F /  -2.2 °C 21.5 °F /  -5.8 °C 29.94 in /  1013.8 hPa NNW 2.6 mph /  4.2 km/h 4.6 mph /  7.4 km/h 76 % 0.00 in /  0 mm
06:52 28.2 °F /  -2.1 °C 21.6 °F /  -5.8 °C 29.94 in /  1013.8 hPa NW 3.2 mph /  5.1 km/h 4.6 mph /  7.4 km/h 76 % 0.00 in /  0 mm
06:58 28.3 °F /  -2.1 °C 21.7 °F /  -5.7 °C 29.95 in /  1014.1 hPa NNE 2.9 mph /  4.7 km/h 6.0 mph /  9.7 km/h 76 % 0.00 in /  0 mm
07:03 28.3 °F /  -2.1 °C 21.7 °F /  -5.7 °C 29.95 in /  1014.1 hPa NNW 0.3 mph /  0.5 km/h 2.3 mph /  3.7 km/h 76 % 0.00 in /  0 mm
07:08 28.5 °F /  -1.9 °C 21.9 °F /  -5.6 °C 29.95 in /  1014.1 hPa NW 3.1 mph /  5 km/h 4.6 mph /  7.4 km/h 76 % 0.00 in /  0 mm
07:13 28.7 °F /  -1.8 °C 22.1 °F /  -5.5 °C 29.95 in /  1014.1 hPa North 2.4 mph /  3.9 km/h 6.9 mph /  11.1 km/h 76 % 0.00 in /  0 mm
07:18 28.8 °F /  -1.8 °C 22.2 °F /  -5.4 °C 29.95 in /  1014.1 hPa NNW 2.1 mph /  3.4 km/h 4.0 mph /  6.4 km/h 76 % 0.00 in /  0 mm
07:23 28.9 °F /  -1.7 °C 22.0 °F /  -5.6 °C 29.96 in /  1014.4 hPa NW 2.3 mph /  3.7 km/h 3.5 mph /  5.6 km/h 75 % 0.00 in /  0 mm
07:28 29.1 °F /  -1.6 °C 22.5 °F /  -5.3 °C 29.95 in /  1014.1 hPa NW 3.2 mph /  5.1 km/h 7.0 mph /  11.3 km/h 76 % 0.00 in /  0 mm
07:33 29.2 °F /  -1.6 °C 22.3 °F /  -5.4 °C 29.95 in /  1014.1 hPa NW 0.1 mph /  0.2 km/h 2.3 mph /  3.7 km/h 75 % 0.00 in /  0 mm
07:38 29.3 °F /  -1.5 °C 22.4 °F /  -5.3 °C 29.96 in /  1014.4 hPa NW 2.0 mph /  3.2 km/h 3.5 mph /  5.6 km/h 75 % 0.00 in /  0 mm
07:43 29.4 °F /  -1.4 °C 22.5 °F /  -5.3 °C 29.96 in /  1014.4 hPa North 2.0 mph /  3.2 km/h 3.5 mph /  5.6 km/h 75 % 0.00 in /  0 mm
07:48 29.6 °F /  -1.3 °C 22.3 °F /  -5.4 °C 29.96 in /  1014.4 hPa NW 3.0 mph /  4.8 km/h 3.5 mph /  5.6 km/h 74 % 0.00 in /  0 mm
07:53 29.6 °F /  -1.3 °C 22.3 °F /  -5.4 °C 29.96 in /  1014.4 hPa West 2.6 mph /  4.2 km/h 3.5 mph /  5.6 km/h 74 % 0.00 in /  0 mm
07:58 29.8 °F /  -1.2 °C 22.2 °F /  -5.4 °C 29.96 in /  1014.4 hPa Calm   3.5 mph /  5.6 km/h 73 % 0.00 in /  0 mm
08:03 29.9 °F /  -1.2 °C 22.6 °F /  -5.2 °C 29.96 in /  1014.4 hPa Calm   1.2 mph /  1.9 km/h 74 % 0.00 in /  0 mm
08:08 30.0 °F /  -1.1 °C 22.7 °F /  -5.2 °C 29.96 in /  1014.4 hPa WNW 0.9 mph /  1.4 km/h 3.5 mph /  5.6 km/h 74 % 0.00 in /  0 mm
08:13 30.1 °F /  -1.1 °C 23.1 °F /  -4.9 °C 29.96 in /  1014.4 hPa WNW 2.1 mph /  3.4 km/h 6.0 mph /  9.7 km/h 75 % 0.00 in /  0 mm
08:19 30.2 °F /  -1 °C 22.9 °F /  -5.1 °C 29.95 in /  1014.1 hPa WNW 2.7 mph /  4.3 km/h 4.0 mph /  6.4 km/h 74 % 0.00 in /  0 mm
08:24 30.2 °F /  -1 °C 22.9 °F /  -5.1 °C 29.96 in /  1014.4 hPa WNW 0.8 mph /  1.3 km/h 3.5 mph /  5.6 km/h 74 % 0.00 in /  0 mm
08:29 30.3 °F /  -0.9 °C 23.0 °F /  -5 °C 29.95 in /  1014.1 hPa West 1.9 mph /  3.1 km/h 3.5 mph /  5.6 km/h 74 % 0.00 in /  0 mm
08:34 30.4 °F /  -0.9 °C 23.4 °F /  -4.8 °C 29.96 in /  1014.4 hPa WNW 2.8 mph /  4.5 km/h 3.5 mph /  5.6 km/h 75 % 0.00 in /  0 mm
08:39 30.5 °F /  -0.8 °C 23.5 °F /  -4.7 °C 29.95 in /  1014.1 hPa WNW 3.0 mph /  4.8 km/h 5.8 mph /  9.3 km/h 75 % 0.00 in /  0 mm
08:44 30.7 °F /  -0.7 °C 23.7 °F /  -4.6 °C 29.95 in /  1014.1 hPa WNW 2.9 mph /  4.7 km/h 3.5 mph /  5.6 km/h 75 % 0.00 in /  0 mm
08:49 31.0 °F /  -0.6 °C 24.0 °F /  -4.4 °C 29.95 in /  1014.1 hPa West 2.6 mph /  4.2 km/h 4.6 mph /  7.4 km/h 75 % 0.00 in /  0 mm
08:54 31.2 °F /  -0.4 °C 23.9 °F /  -4.5 °C 29.95 in /  1014.1 hPa WNW 2.3 mph /  3.7 km/h 4.6 mph /  7.4 km/h 74 % 0.00 in /  0 mm
08:59 31.4 °F /  -0.3 °C 23.7 °F /  -4.6 °C 29.95 in /  1014.1 hPa NNW 3.7 mph /  6 km/h 9.2 mph /  14.8 km/h 73 % 0.00 in /  0 mm
09:04 31.6 °F /  -0.2 °C 23.9 °F /  -4.5 °C 29.93 in /  1013.4 hPa NW 0.3 mph /  0.5 km/h 2.3 mph /  3.7 km/h 73 % 0.00 in /  0 mm
09:10 31.7 °F /  -0.2 °C 23.4 °F /  -4.8 °C 29.93 in /  1013.4 hPa West 1.3 mph /  2.1 km/h 3.5 mph /  5.6 km/h 71 % 0.00 in /  0 mm
09:15 32.0 °F /  0 °C 23.7 °F /  -4.6 °C 29.93 in /  1013.4 hPa Calm   3.5 mph /  5.6 km/h 71 % 0.00 in /  0 mm
09:20 32.2 °F /  0.1 °C 23.8 °F /  -4.6 °C 29.93 in /  1013.4 hPa NW 1.1 mph /  1.8 km/h 3.5 mph /  5.6 km/h 71 % 0.00 in /  0 mm
09:25 32.3 °F /  0.2 °C 23.6 °F /  -4.7 °C 29.92 in /  1013.1 hPa WNW 3.5 mph /  5.6 km/h 4.0 mph /  6.4 km/h 70 % 0.00 in /  0 mm
09:30 32.5 °F /  0.3 °C 23.5 °F /  -4.7 °C 29.93 in /  1013.4 hPa NW 0.8 mph /  1.3 km/h 2.3 mph /  3.7 km/h 69 % 0.00 in /  0 mm
09:35 32.6 °F /  0.3 °C 23.2 °F /  -4.9 °C 29.92 in /  1013.1 hPa NW 2.3 mph /  3.7 km/h 4.0 mph /  6.4 km/h 68 % 0.00 in /  0 mm
09:40 32.6 °F /  0.3 °C 23.2 °F /  -4.9 °C 29.92 in /  1013.1 hPa WNW 4.9 mph /  7.9 km/h 5.8 mph /  9.3 km/h 68 % 0.00 in /  0 mm
09:45 32.7 °F /  0.4 °C 23.3 °F /  -4.8 °C 29.92 in /  1013.1 hPa WNW 1.7 mph /  2.7 km/h 3.5 mph /  5.6 km/h 68 % 0.00 in /  0 mm
09:50 32.8 °F /  0.4 °C 23.4 °F /  -4.8 °C 29.92 in /  1013.1 hPa WNW 0.6 mph /  1 km/h 3.5 mph /  5.6 km/h 68 % 0.00 in /  0 mm
09:55 32.8 °F /  0.4 °C 23.4 °F /  -4.8 °C 29.91 in /  1012.8 hPa West 3.1 mph /  5 km/h 4.6 mph /  7.4 km/h 68 % 0.00 in /  0 mm
10:00 32.9 °F /  0.5 °C 23.8 °F /  -4.6 °C 29.91 in /  1012.8 hPa NW 1.7 mph /  2.7 km/h 3.5 mph /  5.6 km/h 69 % 0.00 in /  0 mm
10:05 33.1 °F /  0.6 °C 23.7 °F /  -4.6 °C 29.91 in /  1012.8 hPa NW 2.2 mph /  3.5 km/h 4.6 mph /  7.4 km/h 68 % 0.00 in /  0 mm
10:10 33.2 °F /  0.7 °C 23.4 °F /  -4.8 °C 29.91 in /  1012.8 hPa West 0.1 mph /  0.2 km/h 1.2 mph /  1.9 km/h 67 % 0.00 in /  0 mm
10:16 33.4 °F /  0.8 °C 23.3 °F /  -4.8 °C 29.91 in /  1012.8 hPa West 2.9 mph /  4.7 km/h 4.6 mph /  7.4 km/h 66 % 0.00 in /  0 mm
10:21 33.6 °F /  0.9 °C 23.8 °F /  -4.6 °C 29.91 in /  1012.8 hPa WNW 2.4 mph /  3.9 km/h 5.8 mph /  9.3 km/h 67 % 0.00 in /  0 mm
10:26 33.7 °F /  0.9 °C 23.2 °F /  -4.9 °C 29.91 in /  1012.8 hPa SW 2.3 mph /  3.7 km/h 4.6 mph /  7.4 km/h 65 % 0.00 in /  0 mm
10:31 33.8 °F /  1 °C 23.3 °F /  -4.8 °C 29.90 in /  1012.4 hPa SSW 2.6 mph /  4.2 km/h 4.6 mph /  7.4 km/h 65 % 0.00 in /  0 mm
10:36 33.9 °F /  1.1 °C 23.4 °F /  -4.8 °C 29.90 in /  1012.4 hPa WSW 2.4 mph /  3.9 km/h 3.5 mph /  5.6 km/h 65 % 0.00 in /  0 mm
10:41 34.1 °F /  1.2 °C 23.6 °F /  -4.7 °C 29.91 in /  1012.8 hPa WSW 2.2 mph /  3.5 km/h 5.8 mph /  9.3 km/h 65 % 0.00 in /  0 mm
10:46 34.1 °F /  1.2 °C 23.2 °F /  -4.9 °C 29.90 in /  1012.4 hPa WNW 1.6 mph /  2.6 km/h 3.5 mph /  5.6 km/h 64 % 0.00 in /  0 mm
10:51 34.4 °F /  1.3 °C 23.5 °F /  -4.7 °C 29.90 in /  1012.4 hPa WSW 5.0 mph /  8 km/h 8.1 mph /  13 km/h 64 % 0.00 in /  0 mm
10:56 34.5 °F /  1.4 °C 23.6 °F /  -4.7 °C 29.90 in /  1012.4 hPa NW 2.4 mph /  3.9 km/h 5.0 mph /  8 km/h 64 % 0.00 in /  0 mm
11:01 34.4 °F /  1.3 °C 23.1 °F /  -4.9 °C 29.90 in /  1012.4 hPa WNW 2.3 mph /  3.7 km/h 4.6 mph /  7.4 km/h 63 % 0.00 in /  0 mm
11:06 34.5 °F /  1.4 °C 23.2 °F /  -4.9 °C 29.90 in /  1012.4 hPa West 1.1 mph /  1.8 km/h 4.6 mph /  7.4 km/h 63 % 0.00 in /  0 mm
11:07 34.5 °F /  1.4 °C 23.2 °F /  -4.9 °C 29.90 in /  1012.4 hPa West 1.3 mph /  2.1 km/h 3.5 mph /  5.6 km/h 63 % 0.00 in /  0 mm
11:12 34.7 °F /  1.5 °C 23.4 °F /  -4.8 °C 29.90 in /  1012.4 hPa West 2.0 mph /  3.2 km/h 3.5 mph /  5.6 km/h 63 % 0.00 in /  0 mm
11:17 34.8 °F /  1.6 °C 23.5 °F /  -4.7 °C 29.90 in /  1012.4 hPa SW 3.6 mph /  5.8 km/h 6.9 mph /  11.1 km/h 63 % 0.00 in /  0 mm
11:22 34.9 °F /  1.6 °C 23.9 °F /  -4.5 °C 29.89 in /  1012.1 hPa West 2.3 mph /  3.7 km/h 3.5 mph /  5.6 km/h 64 % 0.00 in /  0 mm
11:27 34.9 °F /  1.6 °C 23.6 °F /  -4.7 °C 29.88 in /  1011.7 hPa West 5.6 mph /  9 km/h 7.0 mph /  11.3 km/h 63 % 0.00 in /  0 mm
11:32 34.7 °F /  1.5 °C 23.8 °F /  -4.6 °C 29.88 in /  1011.7 hPa WSW 2.9 mph /  4.7 km/h 5.8 mph /  9.3 km/h 64 % 0.00 in /  0 mm
11:37 34.7 °F /  1.5 °C 23.8 °F /  -4.6 °C 29.88 in /  1011.7 hPa SW 3.8 mph /  6.1 km/h 6.9 mph /  11.1 km/h 64 % 0.00 in /  0 mm
11:42 34.6 °F /  1.4 °C 23.3 °F /  -4.8 °C 29.88 in /  1011.7 hPa West 2.8 mph /  4.5 km/h 8.1 mph /  13 km/h 63 % 0.00 in /  0 mm
11:47 34.6 °F /  1.4 °C 23.3 °F /  -4.8 °C 29.87 in /  1011.4 hPa WSW 3.1 mph /  5 km/h 5.0 mph /  8 km/h 63 % 0.00 in /  0 mm
11:52 34.6 °F /  1.4 °C 23.7 °F /  -4.6 °C 29.87 in /  1011.4 hPa WSW 2.2 mph /  3.5 km/h 6.0 mph /  9.7 km/h 64 % 0.00 in /  0 mm
11:57 34.4 °F /  1.3 °C 23.1 °F /  -4.9 °C 29.87 in /  1011.4 hPa WNW 5.7 mph /  9.2 km/h 8.1 mph /  13 km/h 63 % 0.00 in /  0 mm
12:02 34.0 °F /  1.1 °C 23.1 °F /  -4.9 °C 29.87 in /  1011.4 hPa WNW 2.3 mph /  3.7 km/h 5.8 mph /  9.3 km/h 64 % 0.00 in /  0 mm
12:08 33.7 °F /  0.9 °C 22.8 °F /  -5.1 °C 29.86 in /  1011.1 hPa West 4.4 mph /  7.1 km/h 6.0 mph /  9.7 km/h 64 % 0.00 in /  0 mm
12:13 33.7 °F /  0.9 °C 23.5 °F /  -4.7 °C 29.86 in /  1011.1 hPa WSW 4.3 mph /  6.9 km/h 6.9 mph /  11.1 km/h 66 % 0.00 in /  0 mm
12:18 34.1 °F /  1.2 °C 23.6 °F /  -4.7 °C 29.85 in /  1010.7 hPa West 5.8 mph /  9.3 km/h 8.0 mph /  12.9 km/h 65 % 0.00 in /  0 mm
12:23 34.8 °F /  1.6 °C 24.2 °F /  -4.3 °C 29.85 in /  1010.7 hPa WNW 2.9 mph /  4.7 km/h 6.9 mph /  11.1 km/h 65 % 0.00 in /  0 mm
12:28 35.3 °F /  1.8 °C 24.3 °F /  -4.3 °C 29.84 in /  1010.4 hPa West 4.4 mph /  7.1 km/h 6.9 mph /  11.1 km/h 64 % 0.00 in /  0 mm
12:33 35.9 °F /  2.2 °C 24.1 °F /  -4.4 °C 29.84 in /  1010.4 hPa West 2.3 mph /  3.7 km/h 3.5 mph /  5.6 km/h 62 % 0.00 in /  0 mm
12:38 36.1 °F /  2.3 °C 23.9 °F /  -4.5 °C 29.84 in /  1010.4 hPa West 4.3 mph /  6.9 km/h 5.8 mph /  9.3 km/h 61 % 0.00 in /  0 mm
12:43 36.1 °F /  2.3 °C 23.9 °F /  -4.5 °C 29.84 in /  1010.4 hPa West 3.0 mph /  4.8 km/h 5.8 mph /  9.3 km/h 61 % 0.00 in /  0 mm
12:48 36.2 °F /  2.3 °C 24.0 °F /  -4.4 °C 29.83 in /  1010 hPa WNW 3.2 mph /  5.1 km/h 6.9 mph /  11.1 km/h 61 % 0.00 in /  0 mm
12:53 36.3 °F /  2.4 °C 23.7 °F /  -4.6 °C 29.83 in /  1010 hPa WNW 4.2 mph /  6.8 km/h 8.1 mph /  13 km/h 60 % 0.00 in /  0 mm
12:58 36.4 °F /  2.4 °C 23.8 °F /  -4.6 °C 29.83 in /  1010 hPa WSW 4.0 mph /  6.4 km/h 9.2 mph /  14.8 km/h 60 % 0.00 in /  0 mm
13:03 36.7 °F /  2.6 °C 23.7 °F /  -4.6 °C 29.82 in /  1009.7 hPa WNW 3.8 mph /  6.1 km/h 6.9 mph /  11.1 km/h 59 % 0.00 in /  0 mm
13:08 37.0 °F /  2.8 °C 24.4 °F /  -4.2 °C 29.82 in /  1009.7 hPa WNW 2.6 mph /  4.2 km/h 7.0 mph /  11.3 km/h 60 % 0.00 in /  0 mm
13:13 37.4 °F /  3 °C 24.0 °F /  -4.4 °C 29.82 in /  1009.7 hPa WSW 6.0 mph /  9.7 km/h 9.0 mph /  14.5 km/h 58 % 0.00 in /  0 mm
13:18 37.7 °F /  3.2 °C 24.3 °F /  -4.3 °C 29.82 in /  1009.7 hPa West 5.0 mph /  8 km/h 8.0 mph /  12.9 km/h 58 % 0.00 in /  0 mm
13:19 37.8 °F /  3.2 °C 24.3 °F /  -4.3 °C 29.82 in /  1009.7 hPa West 3.2 mph /  5.1 km/h 6.0 mph /  9.7 km/h 58 % 0.00 in /  0 mm
13:24 38.1 °F /  3.4 °C 24.2 °F /  -4.3 °C 29.81 in /  1009.4 hPa SW 2.2 mph /  3.5 km/h 8.1 mph /  13 km/h 57 % 0.00 in /  0 mm
13:29 38.2 °F /  3.4 °C 24.3 °F /  -4.3 °C 29.81 in /  1009.4 hPa WSW 6.1 mph /  9.8 km/h 9.0 mph /  14.5 km/h 57 % 0.00 in /  0 mm
13:34 38.4 °F /  3.6 °C 24.5 °F /  -4.2 °C 29.81 in /  1009.4 hPa WSW 3.4 mph /  5.5 km/h 5.8 mph /  9.3 km/h 57 % 0.00 in /  0 mm
13:39 38.6 °F /  3.7 °C 24.2 °F /  -4.3 °C 29.81 in /  1009.4 hPa West 7.2 mph /  11.6 km/h 10.4 mph /  16.7 km/h 56 % 0.00 in /  0 mm
13:44 38.8 °F /  3.8 °C 24.4 °F /  -4.2 °C 29.81 in /  1009.4 hPa WSW 7.2 mph /  11.6 km/h 9.0 mph /  14.5 km/h 56 % 0.00 in /  0 mm
13:49 38.7 °F /  3.7 °C 24.8 °F /  -4 °C 29.81 in /  1009.4 hPa WSW 4.0 mph /  6.4 km/h 10.4 mph /  16.7 km/h 57 % 0.00 in /  0 mm
13:54 38.9 °F /  3.8 °C 24.5 °F /  -4.2 °C 29.81 in /  1009.4 hPa SW 6.4 mph /  10.3 km/h 8.1 mph /  13 km/h 56 % 0.00 in /  0 mm
13:59 38.8 °F /  3.8 °C 24.9 °F /  -3.9 °C 29.81 in /  1009.4 hPa WSW 4.8 mph /  7.7 km/h 8.1 mph /  13 km/h 57 % 0.00 in /  0 mm
14:04 38.9 °F /  3.8 °C 24.9 °F /  -3.9 °C 29.81 in /  1009.4 hPa WSW 4.3 mph /  6.9 km/h 6.0 mph /  9.7 km/h 57 % 0.00 in /  0 mm
14:09 39.2 °F /  4 °C 24.8 °F /  -4 °C 29.81 in /  1009.4 hPa NW 1.8 mph /  2.9 km/h 4.6 mph /  7.4 km/h 56 % 0.00 in /  0 mm
14:14 39.3 °F /  4.1 °C 24.5 °F /  -4.2 °C 29.81 in /  1009.4 hPa WSW 4.5 mph /  7.2 km/h 5.8 mph /  9.3 km/h 55 % 0.00 in /  0 mm
14:19 39.4 °F /  4.1 °C 24.6 °F /  -4.1 °C 29.80 in /  1009 hPa WNW 1.1 mph /  1.8 km/h 6.9 mph /  11.1 km/h 55 % 0.00 in /  0 mm
14:24 39.5 °F /  4.2 °C 24.7 °F /  -4.1 °C 29.80 in /  1009 hPa NNW 2.2 mph /  3.5 km/h 3.5 mph /  5.6 km/h 55 % 0.00 in /  0 mm
14:29 39.6 °F /  4.2 °C 24.7 °F /  -4.1 °C 29.79 in /  1008.7 hPa West 0.9 mph /  1.4 km/h 4.6 mph /  7.4 km/h 55 % 0.00 in /  0 mm
14:35 39.6 °F /  4.2 °C 24.7 °F /  -4.1 °C 29.79 in /  1008.7 hPa WSW 4.9 mph /  7.9 km/h 8.1 mph /  13 km/h 55 % 0.00 in /  0 mm
14:40 39.3 °F /  4.1 °C 24.9 °F /  -3.9 °C 29.79 in /  1008.7 hPa West 4.0 mph /  6.4 km/h 5.8 mph /  9.3 km/h 56 % 0.00 in /  0 mm
14:45 39.3 °F /  4.1 °C 24.9 °F /  -3.9 °C 29.79 in /  1008.7 hPa West 0.7 mph /  1.1 km/h 3.5 mph /  5.6 km/h 56 % 0.00 in /  0 mm
14:50 39.3 °F /  4.1 °C 25.3 °F /  -3.7 °C 29.78 in /  1008.4 hPa West 3.7 mph /  6 km/h 7.0 mph /  11.3 km/h 57 % 0.00 in /  0 mm
14:55 39.2 °F /  4 °C 24.8 °F /  -4 °C 29.78 in /  1008.4 hPa SSW 3.9 mph /  6.3 km/h 8.1 mph /  13 km/h 56 % 0.00 in /  0 mm
15:00 38.9 °F /  3.8 °C 24.5 °F /  -4.2 °C 29.78 in /  1008.4 hPa SW 2.5 mph /  4 km/h 5.8 mph /  9.3 km/h 56 % 0.00 in /  0 mm
15:05 38.9 °F /  3.8 °C 24.9 °F /  -3.9 °C 29.78 in /  1008.4 hPa WSW 1.0 mph /  1.6 km/h 2.3 mph /  3.7 km/h 57 % 0.00 in /  0 mm
15:10 38.9 °F /  3.8 °C 24.9 °F /  -3.9 °C 29.78 in /  1008.4 hPa SSW 3.7 mph /  6 km/h 5.0 mph /  8 km/h 57 % 0.00 in /  0 mm
15:15 38.8 °F /  3.8 °C 24.9 °F /  -3.9 °C 29.78 in /  1008.4 hPa WSW 4.4 mph /  7.1 km/h 9.2 mph /  14.8 km/h 57 % 0.00 in /  0 mm
15:20 38.8 °F /  3.8 °C 25.3 °F /  -3.7 °C 29.78 in /  1008.4 hPa SW 4.6 mph /  7.4 km/h 8.1 mph /  13 km/h 58 % 0.00 in /  0 mm
15:25 38.7 °F /  3.7 °C 25.2 °F /  -3.8 °C 29.78 in /  1008.4 hPa SSW 0.2 mph /  0.3 km/h 3.5 mph /  5.6 km/h 58 % 0.00 in /  0 mm
15:30 38.6 °F /  3.7 °C 25.5 °F /  -3.6 °C 29.77 in /  1008 hPa South 2.0 mph /  3.2 km/h 3.5 mph /  5.6 km/h 59 % 0.00 in /  0 mm
15:35 38.6 °F /  3.7 °C 25.1 °F /  -3.8 °C 29.77 in /  1008 hPa SW 3.4 mph /  5.5 km/h 4.6 mph /  7.4 km/h 58 % 0.00 in /  0 mm
15:41 38.5 °F /  3.6 °C 25.4 °F /  -3.7 °C 29.77 in /  1008 hPa SW 3.6 mph /  5.8 km/h 8.1 mph /  13 km/h 59 % 0.00 in /  0 mm
15:46 38.4 °F /  3.6 °C 25.7 °F /  -3.5 °C 29.78 in /  1008.4 hPa WSW 7.3 mph /  11.7 km/h 9.2 mph /  14.8 km/h 60 % 0.00 in /  0 mm
15:51 38.4 °F /  3.6 °C 25.7 °F /  -3.5 °C 29.78 in /  1008.4 hPa SW 1.4 mph /  2.3 km/h 3.5 mph /  5.6 km/h 60 % 0.00 in /  0 mm
15:56 38.4 °F /  3.6 °C 25.7 °F /  -3.5 °C 29.78 in /  1008.4 hPa SSW 3.2 mph /  5.1 km/h 5.8 mph /  9.3 km/h 60 % 0.00 in /  0 mm
16:01 38.3 °F /  3.5 °C 25.6 °F /  -3.6 °C 29.79 in /  1008.7 hPa SW 4.8 mph /  7.7 km/h 6.9 mph /  11.1 km/h 60 % 0.00 in /  0 mm
16:06 38.2 °F /  3.4 °C 25.9 °F /  -3.4 °C 29.78 in /  1008.4 hPa SSW 3.3 mph /  5.3 km/h 7.0 mph /  11.3 km/h 61 % 0.00 in /  0 mm
16:11 38.2 °F /  3.4 °C 25.9 °F /  -3.4 °C 29.76 in /  1007.7 hPa SW 4.0 mph /  6.4 km/h 7.0 mph /  11.3 km/h 61 % 0.00 in /  0 mm
16:16 38.1 °F /  3.4 °C 25.8 °F /  -3.4 °C 29.77 in /  1008 hPa SSW 6.0 mph /  9.7 km/h 8.1 mph /  13 km/h 61 % 0.00 in /  0 mm
16:21 38.0 °F /  3.3 °C 26.1 °F /  -3.3 °C 29.77 in /  1008 hPa West 1.6 mph /  2.6 km/h 4.0 mph /  6.4 km/h 62 % 0.00 in /  0 mm
16:26 37.9 °F /  3.3 °C 25.6 °F /  -3.6 °C 29.77 in /  1008 hPa SW 5.7 mph /  9.2 km/h 8.1 mph /  13 km/h 61 % 0.00 in /  0 mm
16:31 37.9 °F /  3.3 °C 26.0 °F /  -3.3 °C 29.77 in /  1008 hPa SW 5.3 mph /  8.5 km/h 5.3 mph /  8.5 km/h 62 % 0.00 in /  0 mm
16:36 37.8 °F /  3.2 °C 25.9 °F /  -3.4 °C 29.77 in /  1008 hPa SSW 3.6 mph /  5.8 km/h 8.1 mph /  13 km/h 62 % 0.00 in /  0 mm
16:41 37.7 °F /  3.2 °C 26.2 °F /  -3.2 °C 29.77 in /  1008 hPa South 1.4 mph /  2.3 km/h 5.8 mph /  9.3 km/h 63 % 0.00 in /  0 mm
16:46 37.6 °F /  3.1 °C 26.1 °F /  -3.3 °C 29.77 in /  1008 hPa SW 3.0 mph /  4.8 km/h 5.0 mph /  8 km/h 63 % 0.00 in /  0 mm
16:52 37.5 °F /  3.1 °C 26.4 °F /  -3.1 °C 29.76 in /  1007.7 hPa South 3.5 mph /  5.6 km/h 7.0 mph /  11.3 km/h 64 % 0.00 in /  0 mm
16:57 37.3 °F /  2.9 °C 26.2 °F /  -3.2 °C 29.76 in /  1007.7 hPa SW 3.6 mph /  5.8 km/h 4.6 mph /  7.4 km/h 64 % 0.00 in /  0 mm
17:02 37.1 °F /  2.8 °C 26.0 °F /  -3.3 °C 29.76 in /  1007.7 hPa South 2.2 mph /  3.5 km/h 4.6 mph /  7.4 km/h 64 % 0.00 in /  0 mm
17:07 37.0 °F /  2.8 °C 25.9 °F /  -3.4 °C 29.76 in /  1007.7 hPa SW 4.6 mph /  7.4 km/h 6.0 mph /  9.7 km/h 64 % 0.00 in /  0 mm
17:12 36.8 °F /  2.7 °C 26.1 °F /  -3.3 °C 29.77 in /  1008 hPa SW 2.9 mph /  4.7 km/h 8.1 mph /  13 km/h 65 % 0.00 in /  0 mm
17:17 36.6 °F /  2.6 °C 25.9 °F /  -3.4 °C 29.77 in /  1008 hPa SW 2.3 mph /  3.7 km/h 3.5 mph /  5.6 km/h 65 % 0.00 in /  0 mm
17:22 36.5 °F /  2.5 °C 25.8 °F /  -3.4 °C 29.76 in /  1007.7 hPa SW 1.4 mph /  2.3 km/h 3.5 mph /  5.6 km/h 65 % 0.00 in /  0 mm
17:27 36.3 °F /  2.4 °C 26.0 °F /  -3.3 °C 29.76 in /  1007.7 hPa SW 0.7 mph /  1.1 km/h 3.5 mph /  5.6 km/h 66 % 0.00 in /  0 mm
17:32 36.1 °F /  2.3 °C 25.8 °F /  -3.4 °C 29.76 in /  1007.7 hPa SSW 1.5 mph /  2.4 km/h 4.6 mph /  7.4 km/h 66 % 0.00 in /  0 mm
17:37 36.0 °F /  2.2 °C 25.7 °F /  -3.5 °C 29.76 in /  1007.7 hPa SSW 2.2 mph /  3.5 km/h 5.8 mph /  9.3 km/h 66 % 0.00 in /  0 mm
17:42 35.8 °F /  2.1 °C 25.5 °F /  -3.6 °C 29.76 in /  1007.7 hPa SSW 0.8 mph /  1.3 km/h 3.5 mph /  5.6 km/h 66 % 0.00 in /  0 mm
17:47 35.6 °F /  2 °C 25.7 °F /  -3.5 °C 29.76 in /  1007.7 hPa South 4.0 mph /  6.4 km/h 5.8 mph /  9.3 km/h 67 % 0.00 in /  0 mm
17:52 35.4 °F /  1.9 °C 25.9 °F /  -3.4 °C 29.77 in /  1008 hPa South 0.5 mph /  0.8 km/h 3.5 mph /  5.6 km/h 68 % 0.00 in /  0 mm
17:57 35.3 °F /  1.8 °C 25.8 °F /  -3.4 °C 29.77 in /  1008 hPa South 1.8 mph /  2.9 km/h 4.0 mph /  6.4 km/h 68 % 0.00 in /  0 mm
18:03 35.2 °F /  1.8 °C 26.0 °F /  -3.3 °C 29.77 in /  1008 hPa South 0.6 mph /  1 km/h 3.0 mph /  4.8 km/h 69 % 0.00 in /  0 mm
18:08 35.0 °F /  1.7 °C 26.2 °F /  -3.2 °C 29.77 in /  1008 hPa Calm   2.0 mph /  3.2 km/h 70 % 0.00 in /  0 mm
18:13 34.8 °F /  1.6 °C 26.4 °F /  -3.1 °C 29.77 in /  1008 hPa Calm   1.2 mph /  1.9 km/h 71 % 0.00 in /  0 mm
18:18 34.7 °F /  1.5 °C 26.3 °F /  -3.2 °C 29.77 in /  1008 hPa SSE 0.3 mph /  0.5 km/h 3.5 mph /  5.6 km/h 71 % 0.00 in /  0 mm
18:23 34.6 °F /  1.4 °C 26.2 °F /  -3.2 °C 29.77 in /  1008 hPa SSE 0.3 mph /  0.5 km/h 1.2 mph /  1.9 km/h 71 % 0.00 in /  0 mm
18:28 34.4 °F /  1.3 °C 26.3 °F /  -3.2 °C 29.77 in /  1008 hPa South 0.3 mph /  0.5 km/h 2.0 mph /  3.2 km/h 72 % 0.00 in /  0 mm
18:33 34.3 °F /  1.3 °C 26.5 °F /  -3.1 °C 29.78 in /  1008.4 hPa South 1.0 mph /  1.6 km/h 3.5 mph /  5.6 km/h 73 % 0.00 in /  0 mm
18:38 34.2 °F /  1.2 °C 26.4 °F /  -3.1 °C 29.78 in /  1008.4 hPa South 0.2 mph /  0.3 km/h 2.3 mph /  3.7 km/h 73 % 0.00 in /  0 mm
18:43 34.0 °F /  1.1 °C 26.3 °F /  -3.2 °C 29.78 in /  1008.4 hPa South 0.1 mph /  0.2 km/h 1.2 mph /  1.9 km/h 73 % 0.00 in /  0 mm
18:48 33.8 °F /  1 °C 26.4 °F /  -3.1 °C 29.77 in /  1008 hPa South 1.7 mph /  2.7 km/h 3.5 mph /  5.6 km/h 74 % 0.00 in /  0 mm
18:53 33.7 °F /  0.9 °C 26.6 °F /  -3 °C 29.77 in /  1008 hPa South 1.9 mph /  3.1 km/h 3.5 mph /  5.6 km/h 75 % 0.00 in /  0 mm
18:58 33.5 °F /  0.8 °C 26.7 °F /  -2.9 °C 29.77 in /  1008 hPa South 2.5 mph /  4 km/h 3.5 mph /  5.6 km/h 76 % 0.00 in /  0 mm
19:03 33.5 °F /  0.8 °C 26.7 °F /  -2.9 °C 29.78 in /  1008.4 hPa South 2.2 mph /  3.5 km/h 3.5 mph /  5.6 km/h 76 % 0.00 in /  0 mm
19:08 33.4 °F /  0.8 °C 27.0 °F /  -2.8 °C 29.78 in /  1008.4 hPa South 2.4 mph /  3.9 km/h 3.5 mph /  5.6 km/h 77 % 0.00 in /  0 mm
19:13 33.2 °F /  0.7 °C 26.8 °F /  -2.9 °C 29.77 in /  1008 hPa South 2.1 mph /  3.4 km/h 3.5 mph /  5.6 km/h 77 % 0.00 in /  0 mm
19:18 33.2 °F /  0.7 °C 27.0 °F /  -2.8 °C 29.77 in /  1008 hPa South 2.0 mph /  3.2 km/h 5.0 mph /  8 km/h 78 % 0.00 in /  0 mm
19:23 33.0 °F /  0.6 °C 26.9 °F /  -2.8 °C 29.77 in /  1008 hPa South 2.0 mph /  3.2 km/h 4.0 mph /  6.4 km/h 78 % 0.00 in /  0 mm
19:28 32.9 °F /  0.5 °C 27.1 °F /  -2.7 °C 29.77 in /  1008 hPa South 1.0 mph /  1.6 km/h 4.0 mph /  6.4 km/h 79 % 0.00 in /  0 mm
19:33 32.8 °F /  0.4 °C 27.0 °F /  -2.8 °C 29.77 in /  1008 hPa South 2.0 mph /  3.2 km/h 5.0 mph /  8 km/h 79 % 0.00 in /  0 mm
19:38 32.7 °F /  0.4 °C 27.3 °F /  -2.6 °C 29.77 in /  1008 hPa South 1.0 mph /  1.6 km/h 5.0 mph /  8 km/h 80 % 0.00 in /  0 mm
19:43 32.7 °F /  0.4 °C 27.5 °F /  -2.5 °C 29.77 in /  1008 hPa South 1.0 mph /  1.6 km/h 5.0 mph /  8 km/h 81 % 0.00 in /  0 mm
19:48 32.7 °F /  0.4 °C 27.8 °F /  -2.3 °C 29.77 in /  1008 hPa South 1.0 mph /  1.6 km/h 4.0 mph /  6.4 km/h 82 % 0.00 in /  0 mm
19:53 32.8 °F /  0.4 °C 28.2 °F /  -2.1 °C 29.77 in /  1008 hPa South 1.0 mph /  1.6 km/h 4.0 mph /  6.4 km/h 83 % 0.00 in /  0 mm
19:58 32.8 °F /  0.4 °C 28.5 °F /  -1.9 °C 29.76 in /  1007.7 hPa South 2.4 mph /  3.9 km/h 4.6 mph /  7.4 km/h 84 % 0.00 in /  0 mm
20:03 32.9 °F /  0.5 °C 28.6 °F /  -1.9 °C 29.76 in /  1007.7 hPa South 2.0 mph /  3.2 km/h 5.0 mph /  8 km/h 84 % 0.00 in /  0 mm
20:08 33.0 °F /  0.6 °C 29.0 °F /  -1.7 °C 29.76 in /  1007.7 hPa SSW 2.0 mph /  3.2 km/h 5.0 mph /  8 km/h 85 % 0.00 in /  0 mm
20:13 33.2 °F /  0.7 °C 29.2 °F /  -1.6 °C 29.76 in /  1007.7 hPa SSW 2.0 mph /  3.2 km/h 4.0 mph /  6.4 km/h 85 % 0.00 in /  0 mm
20:18 33.3 °F /  0.7 °C 29.6 °F /  -1.3 °C 29.76 in /  1007.7 hPa SSW 3.0 mph /  4.8 km/h 4.0 mph /  6.4 km/h 86 % 0.00 in /  0 mm
20:23 33.4 °F /  0.8 °C 29.7 °F /  -1.3 °C 29.76 in /  1007.7 hPa South 2.0 mph /  3.2 km/h 4.0 mph /  6.4 km/h 86 % 0.00 in /  0 mm
20:28 33.4 °F /  0.8 °C 29.7 °F /  -1.3 °C 29.75 in /  1007.3 hPa South 1.0 mph /  1.6 km/h 4.0 mph /  6.4 km/h 86 % 0.00 in /  0 mm
20:33 33.5 °F /  0.8 °C 29.7 °F /  -1.3 °C 29.75 in /  1007.3 hPa South 1.0 mph /  1.6 km/h 4.0 mph /  6.4 km/h 86 % 0.00 in /  0 mm
20:43 33.5 °F /  0.8 °C 30.0 °F /  -1.1 °C 29.76 in /  1007.7 hPa SSW 1.0 mph /  1.6 km/h 3.0 mph /  4.8 km/h 87 % 0.00 in /  0 mm
20:48 33.6 °F /  0.9 °C 30.1 °F /  -1.1 °C 29.76 in /  1007.7 hPa SSW 3.0 mph /  4.8 km/h 7.0 mph /  11.3 km/h 87 % 0.00 in /  0 mm
20:53 33.7 °F /  0.9 °C 30.5 °F /  -0.8 °C 29.76 in /  1007.7 hPa South 3.1 mph /  5 km/h 4.0 mph /  6.4 km/h 88 % 0.00 in /  0 mm
20:58 33.9 °F /  1.1 °C 30.7 °F /  -0.7 °C 29.76 in /  1007.7 hPa SSW 2.6 mph /  4.2 km/h 4.6 mph /  7.4 km/h 88 % 0.00 in /  0 mm
21:03 34.0 °F /  1.1 °C 30.8 °F /  -0.7 °C 29.76 in /  1007.7 hPa South 3.6 mph /  5.8 km/h 5.8 mph /  9.3 km/h 88 % 0.00 in /  0 mm
21:08 34.1 °F /  1.2 °C 30.9 °F /  -0.6 °C 29.75 in /  1007.3 hPa South 3.3 mph /  5.3 km/h 5.8 mph /  9.3 km/h 88 % 0.00 in /  0 mm
21:13 34.1 °F /  1.2 °C 30.9 °F /  -0.6 °C 29.76 in /  1007.7 hPa SSW 2.5 mph /  4 km/h 3.5 mph /  5.6 km/h 88 % 0.00 in /  0 mm
21:18 34.2 °F /  1.2 °C 31.0 °F /  -0.6 °C 29.76 in /  1007.7 hPa SSW 1.5 mph /  2.4 km/h 3.5 mph /  5.6 km/h 88 % 0.00 in /  0 mm
21:24 34.3 °F /  1.3 °C 31.1 °F /  -0.5 °C 29.76 in /  1007.7 hPa South 2.5 mph /  4 km/h 3.5 mph /  5.6 km/h 88 % 0.00 in /  0 mm
21:29 34.3 °F /  1.3 °C 31.1 °F /  -0.5 °C 29.76 in /  1007.7 hPa South 3.5 mph /  5.6 km/h 6.9 mph /  11.1 km/h 88 % 0.00 in /  0 mm
21:34 34.3 °F /  1.3 °C 31.1 °F /  -0.5 °C 29.76 in /  1007.7 hPa SSW 2.2 mph /  3.5 km/h 3.5 mph /  5.6 km/h 88 % 0.00 in /  0 mm
21:39 34.4 °F /  1.3 °C 31.5 °F /  -0.3 °C 29.76 in /  1007.7 hPa South 3.4 mph /  5.5 km/h 6.9 mph /  11.1 km/h 89 % 0.00 in /  0 mm
21:44 34.4 °F /  1.3 °C 31.5 °F /  -0.3 °C 29.76 in /  1007.7 hPa SSW 3.4 mph /  5.5 km/h 5.0 mph /  8 km/h 89 % 0.00 in /  0 mm
21:49 34.5 °F /  1.4 °C 31.6 °F /  -0.2 °C 29.75 in /  1007.3 hPa South 2.1 mph /  3.4 km/h 4.0 mph /  6.4 km/h 89 % 0.00 in /  0 mm
21:54 34.6 °F /  1.4 °C 31.7 °F /  -0.2 °C 29.75 in /  1007.3 hPa South 1.9 mph /  3.1 km/h 5.0 mph /  8 km/h 89 % 0.00 in /  0 mm
21:59 34.7 °F /  1.5 °C 31.8 °F /  -0.1 °C 29.75 in /  1007.3 hPa SSW 2.3 mph /  3.7 km/h 3.5 mph /  5.6 km/h 89 % 0.00 in /  0 mm
22:04 34.8 °F /  1.6 °C 32.2 °F /  0.1 °C 29.74 in /  1007 hPa SSW 2.8 mph /  4.5 km/h 4.6 mph /  7.4 km/h 90 % 0.00 in /  0 mm
22:09 34.9 °F /  1.6 °C 32.3 °F /  0.2 °C 29.74 in /  1007 hPa South 4.0 mph /  6.4 km/h 8.1 mph /  13 km/h 90 % 0.00 in /  0 mm
22:14 35.0 °F /  1.7 °C 32.4 °F /  0.2 °C 29.74 in /  1007 hPa South 4.0 mph /  6.4 km/h 4.6 mph /  7.4 km/h 90 % 0.00 in /  0 mm
22:19 35.1 °F /  1.7 °C 32.5 °F /  0.3 °C 29.73 in /  1006.7 hPa South 4.8 mph /  7.7 km/h 6.0 mph /  9.7 km/h 90 % 0.00 in /  0 mm
22:24 35.2 °F /  1.8 °C 32.6 °F /  0.3 °C 29.73 in /  1006.7 hPa South 2.3 mph /  3.7 km/h 4.6 mph /  7.4 km/h 90 % 0.00 in /  0 mm
22:29 35.2 °F /  1.8 °C 32.6 °F /  0.3 °C 29.73 in /  1006.7 hPa South 2.1 mph /  3.4 km/h 3.5 mph /  5.6 km/h 90 % 0.00 in /  0 mm
22:34 35.2 °F /  1.8 °C 32.6 °F /  0.3 °C 29.74 in /  1007 hPa South 3.4 mph /  5.5 km/h 5.8 mph /  9.3 km/h 90 % 0.00 in /  0 mm
22:39 35.2 °F /  1.8 °C 32.6 °F /  0.3 °C 29.73 in /  1006.7 hPa South 2.1 mph /  3.4 km/h 4.0 mph /  6.4 km/h 90 % 0.00 in /  0 mm
22:44 35.3 °F /  1.8 °C 32.7 °F /  0.4 °C 29.73 in /  1006.7 hPa South 3.8 mph /  6.1 km/h 4.6 mph /  7.4 km/h 90 % 0.00 in /  0 mm
22:49 35.3 °F /  1.8 °C 32.7 °F /  0.4 °C 29.73 in /  1006.7 hPa South 1.5 mph /  2.4 km/h 5.8 mph /  9.3 km/h 90 % 0.00 in /  0 mm
22:54 35.3 °F /  1.8 °C 32.7 °F /  0.4 °C 29.72 in /  1006.3 hPa South 3.7 mph /  6 km/h 4.6 mph /  7.4 km/h 90 % 0.00 in /  0 mm
22:59 35.3 °F /  1.8 °C 32.7 °F /  0.4 °C 29.72 in /  1006.3 hPa SSW 2.6 mph /  4.2 km/h 5.0 mph /  8 km/h 90 % 0.00 in /  0 mm
23:04 35.3 °F /  1.8 °C 32.7 °F /  0.4 °C 29.72 in /  1006.3 hPa South 3.4 mph /  5.5 km/h 6.0 mph /  9.7 km/h 90 % 0.00 in /  0 mm
23:09 35.3 °F /  1.8 °C 32.7 °F /  0.4 °C 29.72 in /  1006.3 hPa SSW 3.1 mph /  5 km/h 6.9 mph /  11.1 km/h 90 % 0.00 in /  0 mm
23:14 35.3 °F /  1.8 °C 32.7 °F /  0.4 °C 29.72 in /  1006.3 hPa South 2.8 mph /  4.5 km/h 4.6 mph /  7.4 km/h 90 % 0.00 in /  0 mm
23:19 35.3 °F /  1.8 °C 32.7 °F /  0.4 °C 29.72 in /  1006.3 hPa SW 3.5 mph /  5.6 km/h 5.8 mph /  9.3 km/h 90 % 0.00 in /  0 mm
23:24 35.3 °F /  1.8 °C 32.7 °F /  0.4 °C 29.71 in /  1006 hPa South 2.6 mph /  4.2 km/h 4.6 mph /  7.4 km/h 90 % 0.00 in /  0 mm
23:29 35.3 °F /  1.8 °C 32.7 °F /  0.4 °C 29.71 in /  1006 hPa South 2.5 mph /  4 km/h 5.8 mph /  9.3 km/h 90 % 0.00 in /  0 mm
23:34 35.3 °F /  1.8 °C 32.7 °F /  0.4 °C 29.71 in /  1006 hPa SW 2.7 mph /  4.3 km/h 4.6 mph /  7.4 km/h 90 % 0.00 in /  0 mm
23:39 35.3 °F /  1.8 °C 32.7 °F /  0.4 °C 29.71 in /  1006 hPa SSW 3.9 mph /  6.3 km/h 6.9 mph /  11.1 km/h 90 % 0.00 in /  0 mm
23:44 35.3 °F /  1.8 °C 32.7 °F /  0.4 °C 29.70 in /  1005.6 hPa SSW 2.1 mph /  3.4 km/h 3.5 mph /  5.6 km/h 90 % 0.00 in /  0 mm
23:49 35.3 °F /  1.8 °C 32.7 °F /  0.4 °C 29.70 in /  1005.6 hPa SSW 2.6 mph /  4.2 km/h 4.6 mph /  7.4 km/h 90 % 0.00 in /  0 mm
23:54 35.4 °F /  1.9 °C 32.8 °F /  0.4 °C 29.70 in /  1005.6 hPa South 4.0 mph /  6.4 km/h 8.0 mph /  12.9 km/h 90 % 0.00 in /  0 mm
Crab Meadow Weather
Compliments of Weather Underground - 3 mb

Script developed by  Jim McMurry - jmcmurry@mwt.net Adapted for the template by  Wim van der Kuil - Leuven-Template.eu

Recycling: The U.S. is the #1 trash-producing country in the world at 1,609 pounds per person per year. This means that 5% of the world's people generate 40% of the world's waste.